Wethersfield, Illinois
Current Conditions -  °F | °C
As of 12:15 PM on Monday 22 Dec 2014 (Local Time) from KSQI Reporting Station
Overcast Overcast  
Wind Chill: 25°   Ceiling: 800
Heat Index: 36°   Visibility: 2.5mi
Dew Point: 30°   Wind: 17mph
Humidity: 81%   Direction: 110°ESE
Pressure: 29.7"   Gusts: NA
Location:  41.5909°N, 89.9498°W
Report Text: KSQI 221815Z 11015KT 2 1/2SM BKN008 OVC016 02/M01 A2970 RMK AO1 P0001
Loading
Personal Weather Stations






























Interactive Weather Map New forecast layout! Learn more

10-Day Weather Forecast

Advertisements
Track Severe Weather on mobile